Weather History for Charlevoix, MI

Change the Weather History Date:

Wednesday, November 10, 2010

  Actual Average Record
Temperature  
Mean Temperature 48 °F -  
Max Temperature 60 °F 44 °F 60 °F (2002)
Min Temperature 37 °F 39 °F 32 °F (2003)
Degree Days  
Heating Degree Days 16    
Moisture  
Dew Point 38 °F    
Average Humidity 69    
Maximum Humidity 100    
Minimum Humidity 36    
Precipitation  
Precipitation 0.00 in - - ()
Sea Level Pressure  
Sea Level Pressure 30.19 in    
Wind  
Wind Speed 8 mph (ESE)    
Max Wind Speed 15 mph    
Max Gust Speed 17 mph    
Visibility 10 miles    
Events      
Averages and records for this station are not official NWS values.
T = Trace of Precipitation, MM = Missing Value Source: NWS Daily Summary

Daily Weather History Graph

Daily Weather History Graph

Search for Another Location

Airport:

Trip Planner

Search our weather history database for the weather conditions in past years. The results will help you decide how hot, cold, wet, or windy it might be!

Date:

Astronomy

Nov. 10, 2010 Rise Set
Actual Time 7:32 AM EST 5:16 PM EST
Civil Twilight 7:01 AM EST 5:48 PM EST
Nautical Twilight 6:25 AM EST 6:23 PM EST
Astronomical Twilight 5:51 AM EST 6:58 PM EST
Moon 12:01 PM EST (11/10) 9:14 PM EST (11/10)
Length of Visible Light 10h 47m
Length of Day
9h 44m
Waxing Crescent, 22% of the Moon is Illuminated
Nov 10
Waxing Crescent
Nov 13
First Quarter
Nov 21
Full
Nov 28
Last Quarter
Dec 5
New

Hourly Weather History & Observations

Time (EST) Temp. Windchill Dew Point Humidity Pressure Visibility Wind Dir Wind Speed Gust Speed Precip Events Conditions
12:15 AM 42.8 °F 37.0 °F 30.2 °F 61% 30.15 in 10.0 mi ESE 10.4 mph - N/A   Clear
12:35 AM 42.8 °F 37.0 °F 30.2 °F 61% 30.15 in 10.0 mi ESE 10.4 mph - N/A   Clear
1:15 AM 42.8 °F 38.0 °F 28.4 °F 57% 30.16 in 10.0 mi ESE 8.1 mph - N/A   Clear
1:35 AM 42.8 °F 37.5 °F 30.2 °F 61% 30.16 in 10.0 mi ESE 9.2 mph - N/A   Clear
1:55 AM 42.8 °F 38.0 °F 32.0 °F 66% 30.16 in 10.0 mi ESE 8.1 mph - N/A   Clear
2:15 AM 41.0 °F 35.8 °F 32.0 °F 70% 30.17 in 10.0 mi ESE 8.1 mph - N/A   Clear
2:35 AM 41.0 °F 36.4 °F 33.8 °F 76% 30.17 in 10.0 mi ESE 6.9 mph - N/A   Clear
2:55 AM 41.0 °F 35.8 °F 35.6 °F 81% 30.18 in 10.0 mi ESE 8.1 mph - N/A   Clear
3:15 AM 41.0 °F 37.1 °F 35.6 °F 81% 30.18 in 10.0 mi ESE 5.8 mph - N/A   Clear
3:35 AM 39.2 °F 34.2 °F 35.6 °F 87% 30.18 in 10.0 mi ESE 6.9 mph - N/A   Clear
3:55 AM 39.2 °F 33.6 °F 37.4 °F 93% 30.17 in 10.0 mi ESE 8.1 mph - N/A   Clear
4:15 AM 39.2 °F 34.2 °F 37.4 °F 93% 30.18 in 10.0 mi SE 6.9 mph - N/A   Clear
4:35 AM 39.2 °F 33.6 °F 37.4 °F 93% 30.18 in 10.0 mi ESE 8.1 mph - N/A   Clear
4:55 AM 39.2 °F 34.2 °F 35.6 °F 87% 30.19 in 10.0 mi ESE 6.9 mph - N/A   Clear
5:15 AM 39.2 °F 34.2 °F 35.6 °F 87% 30.19 in 10.0 mi ESE 6.9 mph - N/A   Clear
5:35 AM 37.4 °F 32.1 °F 35.6 °F 93% 30.19 in 10.0 mi ESE 6.9 mph - N/A   Clear
5:55 AM 37.4 °F 32.1 °F 35.6 °F 93% 30.19 in 10.0 mi ESE 6.9 mph - N/A   Clear
6:15 AM 37.4 °F 31.4 °F 37.4 °F 100% 30.19 in 10.0 mi ESE 8.1 mph - N/A   Clear
6:35 AM 37.4 °F 32.8 °F 37.4 °F 100% 30.19 in 10.0 mi ESE 5.8 mph - N/A   Clear
6:55 AM 39.2 °F 33.6 °F 37.4 °F 93% 30.19 in 10.0 mi ESE 8.1 mph - N/A   Clear
7:15 AM 39.2 °F 34.2 °F 37.4 °F 93% 30.19 in 10.0 mi ESE 6.9 mph - N/A   Clear
7:55 AM 37.4 °F 32.8 °F 35.6 °F 93% 30.19 in 10.0 mi SE 5.8 mph - N/A   Clear
8:15 AM 39.2 °F 35.0 °F 37.4 °F 93% 30.20 in 10.0 mi ESE 5.8 mph - N/A   Clear
8:35 AM 41.0 °F 37.1 °F 37.4 °F 87% 30.21 in 10.0 mi ESE 5.8 mph - N/A   Clear
8:55 AM 41.0 °F 37.1 °F 37.4 °F 87% 30.21 in 10.0 mi ESE 5.8 mph - N/A   Clear
9:15 AM 42.8 °F 38.0 °F 37.4 °F 81% 30.21 in 10.0 mi ESE 8.1 mph - N/A   Clear
9:35 AM 44.6 °F 39.7 °F 37.4 °F 76% 30.21 in 10.0 mi ESE 9.2 mph - N/A   Clear
9:55 AM 46.4 °F 43.5 °F 37.4 °F 71% 30.21 in 10.0 mi ESE 5.8 mph - N/A   Clear
10:15 AM 48.2 °F - 37.4 °F 66% 30.21 in 10.0 mi ESE 8.1 mph - N/A   Clear
10:35 AM 50.0 °F - 35.6 °F 58% 30.21 in 10.0 mi ESE 11.5 mph - N/A   Clear
10:55 AM 51.8 °F - 37.4 °F 58% 30.21 in 10.0 mi SE 15.0 mph - N/A   Clear
11:15 AM 51.8 °F - 39.2 °F 62% 30.21 in 10.0 mi East 9.2 mph - N/A   Clear
11:35 AM 51.8 °F - 37.4 °F 58% 30.20 in 10.0 mi East 8.1 mph - N/A   Clear
11:55 AM 53.6 °F - 39.2 °F 58% 30.20 in 10.0 mi East 10.4 mph - N/A   Clear
12:15 PM 55.4 °F - 37.4 °F 51% 30.20 in 10.0 mi East 6.9 mph - N/A   Clear
12:35 PM 57.2 °F - 35.6 °F 44% 30.20 in 10.0 mi East 4.6 mph - N/A   Clear
12:55 PM 59.0 °F - 33.8 °F 39% 30.19 in 10.0 mi East 8.1 mph 17.3 mph N/A   Clear
1:15 PM 59.0 °F - 35.6 °F 42% 30.19 in 10.0 mi East 9.2 mph - N/A   Clear
1:35 PM 60.8 °F - 33.8 °F 36% 30.18 in 10.0 mi ESE 6.9 mph - N/A   Clear
1:55 PM 60.8 °F - 35.6 °F 39% 30.18 in 10.0 mi SE 11.5 mph 17.3 mph N/A   Clear
2:15 PM 59.0 °F - 39.2 °F 48% 30.18 in 10.0 mi East 11.5 mph - N/A   Clear
2:35 PM 59.0 °F - 41.0 °F 51% 30.18 in 10.0 mi East 11.5 mph 16.1 mph N/A   Clear
2:54 PM 60.8 °F - 41.0 °F 48% 30.18 in 10.0 mi ESE 8.1 mph - N/A   Clear
3:13 PM 60.8 °F - 41.0 °F 48% 30.18 in 10.0 mi ESE 9.2 mph - N/A   Clear
3:35 PM 60.8 °F - 39.2 °F 45% 30.18 in 10.0 mi ESE 10.4 mph - N/A   Clear
3:55 PM 59.0 °F - 42.8 °F 55% 30.18 in 10.0 mi ESE 9.2 mph - N/A   Clear
4:15 PM 60.8 °F - 41.0 °F 48% 30.18 in 10.0 mi SE 11.5 mph 17.3 mph N/A   Clear
4:35 PM 60.8 °F - 41.0 °F 48% 30.18 in 10.0 mi ESE 8.1 mph - N/A   Clear
4:55 PM 59.0 °F - 42.8 °F 55% 30.19 in 10.0 mi ESE 6.9 mph - N/A   Clear
5:15 PM 57.2 °F - 42.8 °F 59% 30.19 in 10.0 mi ESE 8.1 mph - N/A   Clear
5:35 PM 57.2 °F - 42.8 °F 59% 30.19 in 10.0 mi SE 6.9 mph - N/A   Clear
5:55 PM 55.4 °F - 42.8 °F 63% 30.20 in 10.0 mi SE 10.4 mph - N/A   Clear
6:15 PM 53.6 °F - 42.8 °F 67% 30.20 in 10.0 mi SE 5.8 mph - N/A   Clear
6:35 PM 53.6 °F - 42.8 °F 67% 30.21 in 10.0 mi SE 8.1 mph - N/A   Clear
6:55 PM 53.6 °F - 44.6 °F 72% 30.21 in 10.0 mi ESE 8.1 mph - N/A   Clear
7:15 PM 53.6 °F - 44.6 °F 72% 30.21 in 10.0 mi ESE 8.1 mph - N/A   Clear
7:35 PM 51.8 °F - 42.8 °F 71% 30.21 in 10.0 mi ESE 8.1 mph - N/A   Clear
7:55 PM 51.8 °F - 42.8 °F 71% 30.21 in 10.0 mi ESE 8.1 mph - N/A   Clear
8:15 PM 51.8 °F - 42.8 °F 71% 30.21 in 10.0 mi ESE 10.4 mph - N/A   Clear
8:35 PM 51.8 °F - 42.8 °F 71% 30.21 in 10.0 mi ESE 9.2 mph - N/A   Clear
8:55 PM 50.0 °F - 42.8 °F 76% 30.22 in 10.0 mi ESE 9.2 mph - N/A   Clear
9:15 PM 50.0 °F - 42.8 °F 76% 30.22 in 10.0 mi SE 10.4 mph - N/A   Clear
9:35 PM 50.0 °F - 42.8 °F 76% 30.22 in 10.0 mi SE 11.5 mph 17.3 mph N/A   Clear
9:55 PM 50.0 °F - 42.8 °F 76% 30.22 in 10.0 mi SE 8.1 mph - N/A   Clear
10:15 PM 50.0 °F - 42.8 °F 76% 30.22 in 10.0 mi SE 10.4 mph - N/A   Clear
10:35 PM 48.2 °F - 42.8 °F 82% 30.22 in 10.0 mi SE 11.5 mph - N/A   Clear
10:55 PM 48.2 °F - 42.8 °F 82% 30.23 in 10.0 mi SE 9.2 mph - N/A   Clear
11:15 PM 48.2 °F - 42.8 °F 82% 30.23 in 10.0 mi SE 9.2 mph - N/A   Clear
11:55 PM 48.2 °F - 42.8 °F 82% 30.25 in 10.0 mi SE 8.1 mph - N/A   Clear